Buoy 46563

sailwx.info

Track history (hours):
 
Tides and Currents Weather Stations Pressure Air Temp Water Temp Dewpoint Dewpoint Depression Visibility Wind Speed Wind Dir Waves Ship Positions

Drifting buoy 46563

Last reported at 2016-May-25 07:00 UTC. Time now 2016-May-25 09:13 UTC.
Position N 20°26' W 155°01'.

Water temperature 25.5 ° C

Date/timePositionNaut miles runAvg speedWind from/ knotsBaromVisibWave heightAir tempDewpointWater temp
2016-May-25 07:00N 20°26' W 155°01'1 0.6 25.5
2016-May-25 05:00N 20°27' W 155°00'0 0.3 25.6
2016-May-25 04:00N 20°27' W 155°00'1 0.5 25.6
2016-May-25 03:00N 20°27' W 155°01'0 0.5 25.7
2016-May-25 02:00N 20°28' W 155°01'0 0.0 25.7
2016-May-25 01:00N 20°28' W 155°01'2 0.8 25.8
2016-May-24 23:00N 20°29' W 154°60'1 0.2 25.7
2016-May-24 19:00N 20°30' W 155°00'0 0.1 25.5
2016-May-24 17:00N 20°30' W 155°00'0 0.4 25.4
2016-May-24 16:00N 20°30' W 155°01'0 0.1 25.4
2016-May-24 15:00N 20°30' W 155°01'0 0.5 25.4
2016-May-24 14:00N 20°30' W 155°01'1 0.7 25.4
2016-May-24 13:00N 20°30' W 155°02'0 0.1 25.4
2016-May-24 12:00N 20°30' W 155°02'0 0.0 25.4
2016-May-24 05:00N 20°30' W 155°02'0 0.2 25.5
2016-May-24 04:00N 20°30' W 155°02'0 0.2 25.5
2016-May-24 03:00N 20°30' W 155°02'1 0.4 25.5
2016-May-24 01:00N 20°31' W 155°02'1 0.8 25.6
2016-May-24 00:00N 20°31' W 155°02'0 0.0 25.5
2016-May-23 23:00N 20°31' W 155°02'3 0.4 25.6
2016-May-23 17:00N 20°34' W 155°03'1 0.9 25.5
2016-May-23 16:00N 20°34' W 155°04'0 0.2 25.6
2016-May-23 14:00N 20°35' W 155°04'0 0.3 25.5
2016-May-23 13:00N 20°35' W 155°04'1 1.4 25.5
2016-May-23 12:00N 20°36' W 155°05'0 0.0 25.5
2016-May-23 08:00N 20°36' W 155°05'0 0.5 25.6
2016-May-23 07:00N 20°36' W 155°05'1 0.9 25.6
2016-May-23 06:00N 20°37' W 155°06'0 0.1 25.6
2016-May-23 04:00N 20°37' W 155°06'0 0.3 25.6
2016-May-23 03:00N 20°36' W 155°06'0 0.4 25.6
2016-May-23 02:00N 20°36' W 155°06'0 0.1 25.6
2016-May-23 00:00N 20°36' W 155°06'1 1.3 25.6
2016-May-22 23:00N 20°37' W 155°05'0 0.1 25.6
2016-May-22 20:00N 20°37' W 155°05'1 0.2 25.5
2016-May-22 17:00N 20°38' W 155°05'1 0.3 25.5
2016-May-22 13:00N 20°39' W 155°05'1 0.1 25.5
2016-May-22 03:00N 20°39' W 155°05'0 0.0 25.6
2016-May-22 02:00N 20°39' W 155°05'1 0.6 25.6
2016-May-22 01:00N 20°40' W 155°05'0 0.0 25.7
2016-May-22 00:00N 20°40' W 155°05'1 1.3 25.6
2016-May-21 23:00N 20°41' W 155°04'1 0.2 25.6
2016-May-21 20:00N 20°41' W 155°03'0 0.0 25.5
2016-May-21 16:00N 20°41' W 155°04'1 0.8 25.5
2016-May-21 15:00N 20°41' W 155°03'0 0.0 25.5
2016-May-21 13:00N 20°41' W 155°03'2 0.3 25.5
2016-May-21 08:00N 20°42' W 155°01'0 0.1 25.6
2016-May-21 07:00N 20°42' W 155°01'0 0.2 25.6
2016-May-21 05:00N 20°43' W 155°01'0 0.0 25.6
2016-May-21 04:00N 20°43' W 155°01'0 0.2 25.7
2016-May-21 03:00N 20°42' W 155°01'0 0.0 25.7
2016-May-21 02:00N 20°42' W 155°01'3 1.4 25.7
2016-May-21 00:00N 20°43' W 154°58'2 2.0 25.7
2016-May-20 23:00N 20°42' W 155°00'3 0.5 25.7
2016-May-20 17:00N 20°44' W 154°58'0 0.3 25.4
2016-May-20 16:00N 20°44' W 154°57'1 0.3 25.4
2016-May-20 14:00N 20°44' W 154°57'0 0.0 25.4
2016-May-20 13:00N 20°44' W 154°57'1 0.3 25.4
2016-May-20 09:00N 20°45' W 154°56'0 0.0 25.5
2016-May-20 07:00N 20°45' W 154°56'1 0.3 25.5
2016-May-20 04:00N 20°44' W 154°55'0 0.2 25.6
2016-May-20 03:00N 20°44' W 154°55'1 0.4 25.6
2016-May-20 00:00N 20°44' W 154°53'4 0.7 25.6
2016-May-19 19:00N 20°43' W 154°50'0 0.0 25.4
2016-May-19 18:00N 20°43' W 154°50'0 0.0 25.4
2016-May-19 16:00N 20°43' W 154°50'2 0.6 25.4
2016-May-19 13:00N 20°44' W 154°48'2 0.4 25.4
2016-May-19 07:00N 20°46' W 154°46'0 0.0 25.5
2016-May-19 06:00N 20°46' W 154°46'1 0.3 25.5
2016-May-19 04:00N 20°46' W 154°47'1 1.4 25.6
2016-May-19 03:00N 20°44' W 154°46'0 0.0 25.6
2016-May-19 02:00N 20°44' W 154°46'0 0.0 25.6
2016-May-19 01:00N 20°44' W 154°46'3 1.4 25.7
2016-May-18 23:00N 20°42' W 154°46'0 0.0 25.7
2016-May-18 22:00N 20°42' W 154°46'3 0.4 25.6
2016-May-18 16:00N 20°40' W 154°44'1 1.4 25.4
2016-May-18 15:00N 20°40' W 154°43'0 0.0 25.4
2016-May-18 13:00N 20°40' W 154°43'1 0.7 25.4
2016-May-18 12:00N 20°40' W 154°42'0 0.0 25.4
2016-May-18 11:00N 20°40' W 154°42'2 0.5 25.4
2016-May-18 08:00N 20°40' W 154°40'1 0.5 25.4
2016-May-18 06:00N 20°40' W 154°39'0 0.0 25.5
2016-May-18 05:00N 20°40' W 154°39'0 0.4 25.5
2016-May-18 04:00N 20°40' W 154°39'0 0.3 25.5
2016-May-18 03:00N 20°40' W 154°39'0 0.3 25.6
2016-May-18 02:00N 20°40' W 154°39'0 0.0 25.6
2016-May-18 01:00N 20°40' W 154°39'1 0.3 25.6
2016-May-17 23:00N 20°40' W 154°39'1 0.9 25.5
2016-May-17 22:00N 20°39' W 154°39'2 0.5 25.5
2016-May-17 17:00N 20°37' W 154°38'1 0.7 25.4
2016-May-17 16:00N 20°36' W 154°37'1 0.8 25.4
2016-May-17 15:00N 20°36' W 154°36'0 0.0 25.4
2016-May-17 14:00N 20°36' W 154°36'1 0.7 25.4
2016-May-17 13:00N 20°36' W 154°36'1 0.3 25.4
2016-May-17 08:00N 20°35' W 154°34'2 0.6 25.5
2016-May-17 05:00N 20°33' W 154°34'0 0.4 25.6
2016-May-17 04:00N 20°33' W 154°33'1 0.4 25.6
2016-May-17 02:00N 20°33' W 154°34'2 1.6 25.6
2016-May-17 01:00N 20°33' W 154°32'0 0.1 25.6
2016-May-16 23:00N 20°33' W 154°32'1 0.3 25.6
2016-May-16 19:00N 20°32' W 154°32'0 0.0 25.5
2016-May-16 17:00N 20°32' W 154°32'0 0.1 25.5
2016-May-16 16:00N 20°32' W 154°32'0 0.4 25.4
2016-May-16 15:00N 20°31' W 154°32'0 0.2 25.4
2016-May-16 14:00N 20°31' W 154°32'0 0.0 25.5
2016-May-16 13:00N 20°31' W 154°32'0 0.1 25.5
2016-May-16 12:00N 20°31' W 154°32'1 0.9 25.5
2016-May-16 11:00N 20°30' W 154°32'0 0.0 25.5
2016-May-16 08:00N 20°30' W 154°32'1 1.2 25.6
2016-May-16 07:00N 20°29' W 154°31'1 0.2 25.6
2016-May-16 03:00N 20°29' W 154°32'0 0.0 25.8
2016-May-16 02:00N 20°29' W 154°32'0 0.0 25.8
2016-May-16 01:00N 20°29' W 154°32'1 0.3 25.8
2016-May-15 23:00N 20°28' W 154°32'1 0.2 25.7
2016-May-15 17:00N 20°27' W 154°32'0 0.3 25.5
2016-May-15 16:00N 20°27' W 154°32'1 0.7 25.5
2016-May-15 14:00N 20°25' W 154°33'0 0.0 25.5
2016-May-15 13:00N 20°25' W 154°33'0 0.2 25.5
2016-May-15 12:00N 20°26' W 154°33'2 0.4 25.5
2016-May-15 07:00N 20°24' W 154°34'   25.6
Track history (hours):
 
Tides and Currents Weather Stations Pressure Air Temp Water Temp Dewpoint Dewpoint Depression Visibility Wind Speed Wind Dir Waves Ship Positions

Drifting buoy 46563

Last reported at 2016-May-25 07:00 UTC. Time now 2016-May-25 09:13 UTC.
Position N 20°26' W 155°01'.

Water temperature 25.5 ° C

Date/timePositionNaut miles runAvg speedWind from/ knotsBaromVisibWave heightAir tempDewpointWater temp
2016-May-25 07:00N 20°26' W 155°01'1 0.6 25.5
2016-May-25 05:00N 20°27' W 155°00'0 0.3 25.6
2016-May-25 04:00N 20°27' W 155°00'1 0.5 25.6
2016-May-25 03:00N 20°27' W 155°01'0 0.5 25.7
2016-May-25 02:00N 20°28' W 155°01'0 0.0 25.7
2016-May-25 01:00N 20°28' W 155°01'2 0.8 25.8
2016-May-24 23:00N 20°29' W 154°60'1 0.2 25.7
2016-May-24 19:00N 20°30' W 155°00'0 0.1 25.5
2016-May-24 17:00N 20°30' W 155°00'0 0.4 25.4
2016-May-24 16:00N 20°30' W 155°01'0 0.1 25.4
2016-May-24 15:00N 20°30' W 155°01'0 0.5 25.4
2016-May-24 14:00N 20°30' W 155°01'1 0.7 25.4
2016-May-24 13:00N 20°30' W 155°02'0 0.1 25.4
2016-May-24 12:00N 20°30' W 155°02'0 0.0 25.4
2016-May-24 05:00N 20°30' W 155°02'0 0.2 25.5
2016-May-24 04:00N 20°30' W 155°02'0 0.2 25.5
2016-May-24 03:00N 20°30' W 155°02'1 0.4 25.5
2016-May-24 01:00N 20°31' W 155°02'1 0.8 25.6
2016-May-24 00:00N 20°31' W 155°02'0 0.0 25.5
2016-May-23 23:00N 20°31' W 155°02'3 0.4 25.6
2016-May-23 17:00N 20°34' W 155°03'1 0.9 25.5
2016-May-23 16:00N 20°34' W 155°04'0 0.2 25.6
2016-May-23 14:00N 20°35' W 155°04'0 0.3 25.5
2016-May-23 13:00N 20°35' W 155°04'1 1.4 25.5
2016-May-23 12:00N 20°36' W 155°05'0 0.0 25.5
2016-May-23 08:00N 20°36' W 155°05'0 0.5 25.6
2016-May-23 07:00N 20°36' W 155°05'1 0.9 25.6
2016-May-23 06:00N 20°37' W 155°06'0 0.1 25.6
2016-May-23 04:00N 20°37' W 155°06'0 0.3 25.6
2016-May-23 03:00N 20°36' W 155°06'0 0.4 25.6
2016-May-23 02:00N 20°36' W 155°06'0 0.1 25.6
2016-May-23 00:00N 20°36' W 155°06'1 1.3 25.6
2016-May-22 23:00N 20°37' W 155°05'0 0.1 25.6
2016-May-22 20:00N 20°37' W 155°05'1 0.2 25.5
2016-May-22 17:00N 20°38' W 155°05'1 0.3 25.5
2016-May-22 13:00N 20°39' W 155°05'1 0.1 25.5
2016-May-22 03:00N 20°39' W 155°05'0 0.0 25.6
2016-May-22 02:00N 20°39' W 155°05'1 0.6 25.6
2016-May-22 01:00N 20°40' W 155°05'0 0.0 25.7
2016-May-22 00:00N 20°40' W 155°05'1 1.3 25.6
2016-May-21 23:00N 20°41' W 155°04'1 0.2 25.6
2016-May-21 20:00N 20°41' W 155°03'0 0.0 25.5
2016-May-21 16:00N 20°41' W 155°04'1 0.8 25.5
2016-May-21 15:00N 20°41' W 155°03'0 0.0 25.5
2016-May-21 13:00N 20°41' W 155°03'2 0.3 25.5
2016-May-21 08:00N 20°42' W 155°01'0 0.1 25.6
2016-May-21 07:00N 20°42' W 155°01'0 0.2 25.6
2016-May-21 05:00N 20°43' W 155°01'0 0.0 25.6
2016-May-21 04:00N 20°43' W 155°01'0 0.2 25.7
2016-May-21 03:00N 20°42' W 155°01'0 0.0 25.7
2016-May-21 02:00N 20°42' W 155°01'3 1.4 25.7
2016-May-21 00:00N 20°43' W 154°58'2 2.0 25.7
2016-May-20 23:00N 20°42' W 155°00'3 0.5 25.7
2016-May-20 17:00N 20°44' W 154°58'0 0.3 25.4
2016-May-20 16:00N 20°44' W 154°57'1 0.3 25.4
2016-May-20 14:00N 20°44' W 154°57'0 0.0 25.4
2016-May-20 13:00N 20°44' W 154°57'1 0.3 25.4
2016-May-20 09:00N 20°45' W 154°56'0 0.0 25.5
2016-May-20 07:00N 20°45' W 154°56'1 0.3 25.5
2016-May-20 04:00N 20°44' W 154°55'0 0.2 25.6
2016-May-20 03:00N 20°44' W 154°55'1 0.4 25.6
2016-May-20 00:00N 20°44' W 154°53'4 0.7 25.6
2016-May-19 19:00N 20°43' W 154°50'0 0.0 25.4
2016-May-19 18:00N 20°43' W 154°50'0 0.0 25.4
2016-May-19 16:00N 20°43' W 154°50'2 0.6 25.4
2016-May-19 13:00N 20°44' W 154°48'2 0.4 25.4
2016-May-19 07:00N 20°46' W 154°46'0 0.0 25.5
2016-May-19 06:00N 20°46' W 154°46'1 0.3 25.5
2016-May-19 04:00N 20°46' W 154°47'1 1.4 25.6
2016-May-19 03:00N 20°44' W 154°46'0 0.0 25.6
2016-May-19 02:00N 20°44' W 154°46'0 0.0 25.6
2016-May-19 01:00N 20°44' W 154°46'3 1.4 25.7
2016-May-18 23:00N 20°42' W 154°46'0 0.0 25.7
2016-May-18 22:00N 20°42' W 154°46'3 0.4 25.6
2016-May-18 16:00N 20°40' W 154°44'1 1.4 25.4
2016-May-18 15:00N 20°40' W 154°43'0 0.0 25.4
2016-May-18 13:00N 20°40' W 154°43'1 0.7 25.4
2016-May-18 12:00N 20°40' W 154°42'0 0.0 25.4
2016-May-18 11:00N 20°40' W 154°42'2 0.5 25.4
2016-May-18 08:00N 20°40' W 154°40'1 0.5 25.4
2016-May-18 06:00N 20°40' W 154°39'0 0.0 25.5
2016-May-18 05:00N 20°40' W 154°39'0 0.4 25.5
2016-May-18 04:00N 20°40' W 154°39'0 0.3 25.5
2016-May-18 03:00N 20°40' W 154°39'0 0.3 25.6
2016-May-18 02:00N 20°40' W 154°39'0 0.0 25.6
2016-May-18 01:00N 20°40' W 154°39'1 0.3 25.6
2016-May-17 23:00N 20°40' W 154°39'1 0.9 25.5
2016-May-17 22:00N 20°39' W 154°39'2 0.5 25.5
2016-May-17 17:00N 20°37' W 154°38'1 0.7 25.4
2016-May-17 16:00N 20°36' W 154°37'1 0.8 25.4
2016-May-17 15:00N 20°36' W 154°36'0 0.0 25.4
2016-May-17 14:00N 20°36' W 154°36'1 0.7 25.4
2016-May-17 13:00N 20°36' W 154°36'1 0.3 25.4
2016-May-17 08:00N 20°35' W 154°34'2 0.6 25.5
2016-May-17 05:00N 20°33' W 154°34'0 0.4 25.6
2016-May-17 04:00N 20°33' W 154°33'1 0.4 25.6
2016-May-17 02:00N 20°33' W 154°34'2 1.6 25.6
2016-May-17 01:00N 20°33' W 154°32'0 0.1 25.6
2016-May-16 23:00N 20°33' W 154°32'1 0.3 25.6
2016-May-16 19:00N 20°32' W 154°32'0 0.0 25.5
2016-May-16 17:00N 20°32' W 154°32'0 0.1 25.5
2016-May-16 16:00N 20°32' W 154°32'0 0.4 25.4
2016-May-16 15:00N 20°31' W 154°32'0 0.2 25.4
2016-May-16 14:00N 20°31' W 154°32'0 0.0 25.5
2016-May-16 13:00N 20°31' W 154°32'0 0.1 25.5
2016-May-16 12:00N 20°31' W 154°32'1 0.9 25.5
2016-May-16 11:00N 20°30' W 154°32'0 0.0 25.5
2016-May-16 08:00N 20°30' W 154°32'1 1.2 25.6
2016-May-16 07:00N 20°29' W 154°31'1 0.2 25.6
2016-May-16 03:00N 20°29' W 154°32'0 0.0 25.8
2016-May-16 02:00N 20°29' W 154°32'0 0.0 25.8
2016-May-16 01:00N 20°29' W 154°32'1 0.3 25.8
2016-May-15 23:00N 20°28' W 154°32'1 0.2 25.7
2016-May-15 17:00N 20°27' W 154°32'0 0.3 25.5
2016-May-15 16:00N 20°27' W 154°32'1 0.7 25.5
2016-May-15 14:00N 20°25' W 154°33'0 0.0 25.5
2016-May-15 13:00N 20°25' W 154°33'0 0.2 25.5
2016-May-15 12:00N 20°26' W 154°33'2 0.4 25.5
2016-May-15 07:00N 20°24' W 154°34'   25.6

Dump ship's entire track history